createdAt,value
2019-03-09T00:00:52.557Z,4.53
2019-03-09T00:03:18.640Z,4.40
2019-03-09T00:05:44.759Z,4.72
2019-03-09T00:08:10.887Z,4.78
2019-03-09T00:10:37.096Z,4.67
2019-03-09T00:13:03.689Z,4.30
2019-03-09T00:15:29.807Z,5.12
2019-03-09T00:17:55.981Z,4.67
2019-03-09T00:20:22.075Z,5.20
2019-03-09T00:22:50.057Z,4.30
2019-03-09T00:25:20.919Z,4.55
2019-03-09T00:27:51.865Z,4.75
2019-03-09T00:30:22.594Z,4.50
2019-03-09T00:32:48.800Z,4.10
2019-03-09T00:35:14.987Z,4.05
2019-03-09T00:37:41.124Z,4.30
2019-03-09T00:40:09.388Z,4.35
2019-03-09T00:42:35.660Z,4.75
2019-03-09T00:45:01.968Z,5.78
2019-03-09T00:47:28.065Z,5.35
2019-03-09T00:49:54.155Z,4.87
2019-03-09T00:52:20.343Z,4.55
2019-03-09T00:54:46.445Z,5.12
2019-03-09T00:57:12.546Z,4.67
2019-03-09T00:59:38.695Z,4.83
2019-03-09T01:02:04.884Z,4.78
2019-03-09T01:04:30.976Z,4.70
2019-03-09T01:06:57.159Z,4.35
2019-03-09T01:09:23.228Z,5.03
2019-03-09T01:11:49.323Z,5.15
2019-03-09T01:14:15.477Z,5.00
2019-03-09T01:16:41.745Z,4.87
2019-03-09T01:19:08.002Z,4.80
2019-03-09T01:21:34.205Z,5.50
2019-03-09T01:24:00.403Z,5.00
2019-03-09T01:26:26.639Z,4.55
2019-03-09T01:28:52.723Z,4.67
2019-03-09T01:31:19.007Z,4.60
2019-03-09T01:33:45.224Z,5.08
2019-03-09T01:36:11.320Z,5.17
2019-03-09T01:38:37.404Z,5.25
2019-03-09T01:41:03.522Z,5.40
2019-03-09T01:43:29.607Z,4.70
2019-03-09T01:45:55.861Z,5.90
2019-03-09T01:48:22.132Z,5.55
2019-03-09T01:50:48.206Z,4.70
2019-03-09T01:53:14.301Z,4.70
2019-03-09T01:55:40.364Z,5.47
2019-03-09T01:58:06.474Z,5.28
2019-03-09T02:00:32.575Z,4.50
2019-03-09T02:02:58.690Z,5.12
2019-03-09T02:05:25.050Z,5.33
2019-03-09T02:07:51.213Z,4.30
2019-03-09T02:10:17.645Z,4.85
2019-03-09T02:12:44.023Z,5.00
2019-03-09T02:15:11.708Z,4.72
2019-03-09T02:17:37.792Z,5.08
2019-03-09T02:20:06.723Z,4.37
2019-03-09T02:22:32.889Z,4.60
2019-03-09T02:24:58.984Z,4.15
2019-03-09T02:27:25.055Z,4.87
2019-03-09T02:29:51.204Z,4.87
2019-03-09T02:32:17.399Z,5.03
2019-03-09T02:34:43.584Z,4.87
2019-03-09T02:37:09.774Z,4.85
2019-03-09T02:39:37.755Z,4.12
2019-03-09T02:42:03.916Z,4.00
2019-03-09T02:44:30.037Z,3.87
2019-03-09T02:46:56.311Z,4.40
2019-03-09T02:49:22.517Z,3.92
2019-03-09T02:51:48.660Z,3.90
2019-03-09T02:54:14.736Z,4.45
2019-03-09T02:56:40.852Z,4.58
2019-03-09T02:59:06.930Z,4.87
2019-03-09T03:01:51.656Z,4.30
2019-03-09T03:04:17.719Z,4.47
2019-03-09T03:06:43.817Z,4.12
2019-03-09T03:09:10.144Z,3.80
2019-03-09T03:11:37.351Z,4.35
2019-03-09T03:14:03.844Z,3.90
2019-03-09T03:16:29.950Z,4.05
2019-03-09T03:18:56.233Z,3.83
2019-03-09T03:21:22.286Z,4.12
2019-03-09T03:23:48.385Z,3.83
2019-03-09T03:26:14.540Z,3.90
2019-03-09T03:28:40.741Z,4.60
2019-03-09T03:31:06.828Z,4.33
2019-03-09T03:33:32.923Z,3.47
2019-03-09T03:35:59.091Z,4.42
2019-03-09T03:38:25.157Z,3.90
2019-03-09T03:40:51.252Z,3.90
2019-03-09T03:43:17.324Z,3.98
2019-03-09T03:45:43.439Z,3.75
2019-03-09T03:48:09.519Z,4.15
2019-03-09T03:50:35.625Z,4.17
2019-03-09T03:53:01.800Z,4.75
2019-03-09T03:55:27.914Z,4.20
2019-03-09T03:57:54.097Z,4.17
2019-03-09T04:00:20.175Z,5.20
2019-03-09T04:02:46.286Z,5.20
2019-03-09T04:05:12.631Z,4.50
2019-03-09T04:07:39.517Z,4.47
2019-03-09T04:10:08.242Z,4.00
2019-03-09T04:12:34.412Z,4.05
2019-03-09T04:15:00.493Z,4.20
2019-03-09T04:17:26.557Z,4.55
2019-03-09T04:19:52.767Z,4.60
2019-03-09T04:22:18.897Z,4.22
2019-03-09T04:24:45.088Z,5.35
2019-03-09T04:27:11.172Z,3.83
2019-03-09T04:29:37.404Z,4.83
2019-03-09T04:32:03.592Z,4.60
2019-03-09T04:34:29.776Z,4.20
2019-03-09T04:36:58.767Z,5.45
2019-03-09T04:39:24.865Z,4.67
2019-03-09T04:41:52.213Z,4.17
2019-03-09T04:44:18.287Z,4.58
2019-03-09T04:46:44.362Z,4.90
2019-03-09T04:49:10.776Z,4.92
2019-03-09T04:51:36.978Z,4.50
2019-03-09T04:54:03.159Z,4.60
2019-03-09T04:56:29.253Z,4.62
2019-03-09T04:58:55.445Z,4.50
2019-03-09T05:01:21.632Z,5.42
2019-03-09T05:03:54.650Z,4.40
2019-03-09T05:06:20.805Z,5.03
2019-03-09T05:08:50.702Z,4.67
2019-03-09T05:11:16.869Z,4.10
2019-03-09T05:13:42.960Z,4.20
2019-03-09T05:16:09.043Z,4.80
2019-03-09T05:18:35.153Z,4.62
2019-03-09T05:21:01.267Z,4.40
2019-03-09T05:23:27.355Z,4.20
2019-03-09T05:25:53.437Z,4.80
2019-03-09T05:28:19.581Z,4.10
2019-03-09T05:30:46.064Z,4.50
2019-03-09T05:33:12.240Z,4.40
2019-03-09T05:35:38.452Z,4.50
2019-03-09T05:38:04.529Z,4.62
2019-03-09T05:40:30.601Z,4.28
2019-03-09T05:42:56.685Z,4.53
2019-03-09T05:45:22.786Z,4.17
2019-03-09T05:47:48.895Z,3.90
2019-03-09T05:50:15.025Z,4.35
2019-03-09T05:52:41.159Z,4.95
2019-03-09T05:55:10.457Z,4.60
2019-03-09T05:57:36.530Z,4.40
2019-03-09T06:00:06.486Z,4.37
2019-03-09T06:02:32.655Z,4.28
2019-03-09T06:04:58.793Z,4.45
2019-03-09T06:07:24.975Z,5.05
2019-03-09T06:09:51.217Z,4.90
2019-03-09T06:12:17.359Z,4.53
2019-03-09T06:14:43.563Z,5.03
2019-03-09T06:17:09.652Z,4.25
2019-03-09T06:19:35.743Z,4.10
2019-03-09T06:22:01.819Z,5.10
2019-03-09T06:24:28.055Z,4.50
2019-03-09T06:26:54.240Z,4.30
2019-03-09T06:29:20.325Z,4.40
2019-03-09T06:31:59.362Z,4.55
2019-03-09T06:34:25.532Z,4.58
2019-03-09T06:36:55.489Z,4.58
2019-03-09T06:39:21.752Z,4.35
2019-03-09T06:41:51.793Z,4.25
2019-03-09T06:44:17.987Z,4.90
2019-03-09T06:46:44.185Z,5.20
2019-03-09T06:49:10.593Z,4.42
2019-03-09T06:51:36.796Z,4.72
2019-03-09T06:54:03.086Z,4.30
2019-03-09T06:56:29.356Z,4.80
2019-03-09T06:58:55.571Z,4.12
2019-03-09T07:01:21.698Z,4.62
2019-03-09T07:03:47.774Z,4.67
2019-03-09T07:06:13.971Z,4.25
2019-03-09T07:08:40.063Z,4.55
2019-03-09T07:11:06.149Z,4.35
2019-03-09T07:13:32.270Z,4.78
2019-03-09T07:15:58.357Z,4.10
2019-03-09T07:18:24.457Z,4.47
2019-03-09T07:20:50.658Z,5.50
2019-03-09T07:23:16.758Z,4.53
2019-03-09T07:25:42.991Z,5.17
2019-03-09T07:28:11.079Z,4.20
2019-03-09T07:30:37.457Z,3.80
2019-03-09T07:33:03.860Z,3.20
2019-03-09T07:35:29.973Z,2.42
2019-03-09T07:37:56.120Z,2.33
2019-03-09T07:40:22.342Z,2.70
2019-03-09T07:42:48.507Z,2.77
2019-03-09T07:45:14.594Z,2.60
2019-03-09T07:47:40.712Z,2.72
2019-03-09T07:50:14.117Z,2.45
2019-03-09T07:52:40.334Z,2.60
2019-03-09T07:55:09.054Z,3.15
2019-03-09T07:57:35.141Z,3.00
2019-03-09T08:00:01.447Z,2.90
2019-03-09T08:02:27.700Z,3.17
2019-03-09T08:04:53.812Z,4.25
2019-03-09T08:07:20.039Z,3.52
2019-03-09T08:09:46.159Z,3.58
2019-03-09T08:12:12.300Z,3.85
2019-03-09T08:14:38.508Z,3.95
2019-03-09T08:17:04.604Z,3.72
2019-03-09T08:19:30.851Z,3.95
2019-03-09T08:21:57.152Z,4.70
2019-03-09T08:24:23.322Z,4.30
2019-03-09T08:26:49.419Z,4.40
2019-03-09T08:29:15.491Z,4.78
2019-03-09T08:31:41.580Z,4.75
2019-03-09T08:34:07.873Z,4.08
2019-03-09T08:36:35.085Z,3.87
2019-03-09T08:39:01.451Z,4.42
2019-03-09T08:41:27.667Z,3.95
2019-03-09T08:43:53.783Z,3.45
2019-03-09T08:46:20.021Z,3.72
2019-03-09T08:48:46.191Z,3.40
2019-03-09T08:51:12.325Z,3.90
2019-03-09T08:53:38.615Z,3.30
2019-03-09T08:56:04.853Z,3.80
2019-03-09T08:58:30.943Z,3.47
2019-03-09T09:00:57.120Z,3.40
2019-03-09T09:03:23.245Z,3.42
2019-03-09T09:05:49.396Z,4.12
2019-03-09T09:08:15.573Z,3.60
2019-03-09T09:10:41.674Z,3.87
2019-03-09T09:13:07.877Z,3.90
2019-03-09T09:15:33.964Z,3.40
2019-03-09T09:18:00.175Z,3.10
2019-03-09T09:20:26.356Z,3.75
2019-03-09T09:22:52.560Z,3.85
2019-03-09T09:25:18.843Z,3.50
2019-03-09T09:27:45.057Z,3.40
2019-03-09T09:30:22.362Z,3.12
2019-03-09T09:32:48.545Z,3.12
2019-03-09T09:35:15.741Z,4.12
2019-03-09T09:37:41.841Z,3.10
2019-03-09T09:40:14.125Z,3.25
2019-03-09T09:42:40.216Z,2.98
2019-03-09T09:45:09.340Z,3.00
2019-03-09T09:47:35.479Z,3.12
2019-03-09T09:50:01.743Z,3.20
2019-03-09T09:52:27.835Z,3.22
2019-03-09T09:54:53.928Z,3.08
2019-03-09T09:57:20.037Z,3.60
2019-03-09T09:59:46.127Z,3.37
2019-03-09T10:02:12.320Z,3.03
2019-03-09T10:04:38.417Z,3.13
2019-03-09T10:07:04.502Z,3.07
2019-03-09T10:09:30.625Z,3.20
2019-03-09T10:11:56.818Z,3.33
2019-03-09T10:14:22.938Z,3.10
2019-03-09T10:16:49.037Z,3.17
2019-03-09T10:19:15.148Z,2.50
2019-03-09T10:21:41.236Z,3.30
2019-03-09T10:24:07.329Z,3.13
2019-03-09T10:26:33.557Z,3.30
2019-03-09T10:28:59.669Z,2.90
2019-03-09T10:31:25.856Z,2.93
2019-03-09T10:33:51.966Z,2.70
2019-03-09T10:36:18.190Z,3.13
2019-03-09T10:38:44.360Z,4.50
2019-03-09T10:41:10.485Z,3.00
2019-03-09T10:43:36.600Z,3.17
2019-03-09T10:46:02.799Z,3.27
2019-03-09T10:48:29.044Z,3.10
2019-03-09T10:50:55.180Z,3.37
2019-03-09T10:53:21.606Z,3.27
2019-03-09T10:55:47.686Z,2.13
2019-03-09T10:58:13.776Z,2.20
2019-03-09T11:00:42.679Z,2.70
2019-03-09T11:03:08.926Z,3.50
2019-03-09T11:05:35.151Z,2.20
2019-03-09T11:08:01.388Z,3.30
2019-03-09T11:10:27.483Z,2.20
2019-03-09T11:12:55.382Z,1.97
2019-03-09T11:15:21.574Z,1.60
2019-03-09T11:17:47.731Z,2.33
2019-03-09T11:20:15.526Z,2.77
2019-03-09T11:22:41.739Z,2.03
2019-03-09T11:25:08.149Z,1.50
2019-03-09T11:27:34.413Z,2.27
2019-03-09T11:30:00.733Z,1.60
2019-03-09T11:32:26.944Z,1.87
2019-03-09T11:34:53.056Z,2.10
2019-03-09T11:37:19.184Z,1.50
2019-03-09T11:39:45.489Z,1.27
2019-03-09T11:42:11.580Z,2.07
2019-03-09T11:44:37.672Z,1.77
2019-03-09T11:47:03.877Z,1.40
2019-03-09T11:49:29.993Z,1.53
2019-03-09T11:51:56.200Z,1.20
2019-03-09T11:54:22.379Z,1.50
2019-03-09T11:56:48.564Z,1.43
2019-03-09T11:59:14.744Z,1.33
2019-03-09T12:01:40.887Z,1.40
2019-03-09T12:04:07.089Z,1.30
2019-03-09T12:06:33.319Z,1.40
2019-03-09T12:08:59.666Z,1.13
2019-03-09T12:11:25.812Z,1.40
2019-03-09T12:13:52.011Z,0.93
2019-03-09T12:16:18.092Z,1.57
2019-03-09T12:18:44.232Z,1.63
2019-03-09T12:21:10.413Z,1.73
2019-03-09T12:23:36.537Z,1.27
2019-03-09T12:26:02.613Z,1.07
2019-03-09T12:28:28.748Z,1.30
2019-03-09T12:30:54.870Z,0.90
2019-03-09T12:33:20.982Z,1.10
2019-03-09T12:35:47.249Z,1.20
2019-03-09T12:38:13.369Z,1.10
2019-03-09T12:40:39.588Z,1.10
2019-03-09T12:43:05.674Z,1.10
2019-03-09T12:45:31.978Z,1.00
2019-03-09T12:47:58.097Z,1.00
2019-03-09T12:50:24.182Z,1.03
2019-03-09T12:52:50.273Z,1.00
2019-03-09T12:55:16.380Z,1.10
2019-03-09T12:57:42.766Z,1.20
2019-03-09T13:00:12.368Z,1.10
2019-03-09T13:02:38.457Z,1.10
2019-03-09T13:05:04.806Z,0.93
2019-03-09T13:07:31.029Z,0.80
2019-03-09T13:09:57.121Z,1.03
2019-03-09T13:12:23.507Z,1.00
2019-03-09T13:14:49.764Z,1.33
2019-03-09T13:17:15.915Z,0.90
2019-03-09T13:19:42.229Z,1.10
2019-03-09T13:22:08.449Z,1.00
2019-03-09T13:24:34.687Z,1.37
2019-03-09T13:27:00.802Z,1.67
2019-03-09T13:29:27.009Z,1.70
2019-03-09T13:31:53.165Z,1.00
2019-03-09T13:34:19.314Z,1.83
2019-03-09T13:36:45.663Z,4.93
2019-03-09T13:39:11.877Z,2.00
2019-03-09T13:41:38.168Z,1.70
2019-03-09T13:44:04.344Z,2.70
2019-03-09T13:46:30.511Z,1.70
2019-03-09T13:48:56.682Z,1.90
2019-03-09T13:51:22.774Z,1.50
2019-03-09T13:53:48.859Z,1.20
2019-03-09T13:56:14.962Z,1.13
2019-03-09T13:58:41.237Z,1.20
2019-03-09T14:01:07.374Z,1.13
2019-03-09T14:03:33.504Z,0.80
2019-03-09T14:05:59.632Z,0.90
2019-03-09T14:08:26.649Z,1.00
2019-03-09T14:11:05.110Z,1.20
2019-03-09T14:13:36.469Z,0.80
2019-03-09T14:16:03.309Z,2.00
2019-03-09T14:18:29.576Z,0.90
2019-03-09T14:20:55.915Z,1.10
2019-03-09T14:23:22.231Z,0.97
2019-03-09T14:25:48.361Z,1.83
2019-03-09T14:28:14.500Z,5.10
2019-03-09T14:30:40.604Z,3.10
2019-03-09T14:33:06.820Z,2.43
2019-03-09T14:35:33.004Z,1.23
2019-03-09T14:37:59.081Z,0.90
2019-03-09T14:40:25.194Z,0.97
2019-03-09T14:42:51.305Z,1.43
2019-03-09T14:45:20.652Z,1.67
2019-03-09T14:47:46.854Z,1.73
2019-03-09T14:50:13.261Z,1.50
2019-03-09T14:52:39.340Z,1.10
2019-03-09T14:55:07.861Z,1.00
2019-03-09T14:57:34.048Z,1.23
2019-03-09T15:00:00.348Z,1.00
2019-03-09T15:02:26.480Z,0.93
2019-03-09T15:04:52.690Z,1.00
2019-03-09T15:07:18.788Z,1.03
2019-03-09T15:09:44.864Z,0.90
2019-03-09T15:12:10.986Z,1.30
2019-03-09T15:14:37.069Z,1.20
2019-03-09T15:17:03.155Z,1.00
2019-03-09T15:19:29.415Z,1.10
2019-03-09T15:21:55.571Z,1.00
2019-03-09T15:24:21.684Z,1.00
2019-03-09T15:26:47.760Z,1.53
2019-03-09T15:29:13.872Z,1.60
2019-03-09T15:31:40.173Z,1.23
2019-03-09T15:34:06.271Z,0.93
2019-03-09T15:36:32.546Z,1.50
2019-03-09T15:38:58.725Z,1.47
2019-03-09T15:41:24.897Z,0.90
2019-03-09T15:43:51.120Z,1.33
2019-03-09T15:46:17.347Z,1.10
2019-03-09T15:48:43.523Z,1.00
2019-03-09T15:51:09.699Z,1.40
2019-03-09T15:53:35.879Z,1.40
2019-03-09T15:56:02.204Z,1.27
2019-03-09T15:58:28.415Z,1.30
2019-03-09T16:00:54.718Z,1.37
2019-03-09T16:03:20.841Z,1.40
2019-03-09T16:05:46.929Z,1.50
2019-03-09T16:08:13.162Z,1.37
2019-03-09T16:10:40.168Z,1.10
2019-03-09T16:13:06.278Z,1.40
2019-03-09T16:15:32.498Z,1.40
2019-03-09T16:17:58.692Z,1.13
2019-03-09T16:20:27.597Z,1.60
2019-03-09T16:22:53.794Z,1.30
2019-03-09T16:25:19.917Z,1.30
2019-03-09T16:27:46.036Z,1.43
2019-03-09T16:30:17.513Z,1.47
2019-03-09T16:32:43.832Z,1.60
2019-03-09T16:35:10.656Z,1.77
2019-03-09T16:37:36.885Z,2.03
2019-03-09T16:40:09.841Z,1.73
2019-03-09T16:42:36.047Z,1.83
2019-03-09T16:45:02.907Z,3.20
2019-03-09T16:47:29.004Z,2.70
2019-03-09T16:49:55.227Z,1.90
2019-03-09T16:52:21.407Z,3.10
2019-03-09T16:54:47.796Z,2.13
2019-03-09T16:57:14.121Z,2.50
2019-03-09T16:59:40.260Z,1.87
2019-03-09T17:02:06.339Z,2.27
2019-03-09T17:04:32.401Z,1.80
2019-03-09T17:06:58.603Z,1.93
2019-03-09T17:09:24.799Z,2.50
2019-03-09T17:11:50.940Z,2.10
2019-03-09T17:14:17.945Z,2.67
2019-03-09T17:16:44.043Z,1.93
2019-03-09T17:19:10.247Z,2.97
2019-03-09T17:21:36.534Z,2.27
2019-03-09T17:24:02.614Z,2.80
2019-03-09T17:26:28.714Z,2.60
2019-03-09T17:28:54.941Z,2.40
2019-03-09T17:31:21.153Z,2.70
2019-03-09T17:33:47.277Z,1.77
2019-03-09T17:36:13.388Z,1.60
2019-03-09T17:38:39.467Z,1.33
2019-03-09T17:41:05.649Z,1.23
2019-03-09T17:43:31.748Z,1.40
2019-03-09T17:45:57.842Z,1.30
2019-03-09T17:48:23.993Z,1.33
2019-03-09T17:50:50.520Z,1.50
2019-03-09T17:53:16.627Z,1.50
2019-03-09T17:55:42.861Z,1.40
2019-03-09T17:58:09.008Z,1.30
2019-03-09T18:00:42.670Z,1.50
2019-03-09T18:03:07.803Z,1.57
2019-03-09T18:05:34.040Z,1.30
2019-03-09T18:08:00.122Z,1.93
2019-03-09T18:10:36.692Z,1.10
2019-03-09T18:13:04.151Z,1.43
2019-03-09T18:15:31.744Z,1.40
2019-03-09T18:17:57.871Z,1.27
2019-03-09T18:20:24.487Z,1.00
2019-03-09T18:22:52.203Z,1.37
2019-03-09T18:25:20.107Z,1.40
2019-03-09T18:27:46.317Z,1.10
2019-03-09T18:30:12.615Z,1.00
2019-03-09T18:32:38.724Z,1.00
2019-03-09T18:35:13.331Z,1.00
2019-03-09T18:37:40.675Z,1.03
2019-03-09T18:40:11.340Z,0.80
2019-03-09T18:42:37.568Z,1.20
2019-03-09T18:45:07.833Z,1.00
2019-03-09T18:47:33.903Z,1.10
2019-03-09T18:50:00.727Z,1.10
2019-03-09T18:52:26.911Z,1.00
2019-03-09T18:54:53.680Z,1.10
2019-03-09T18:57:20.597Z,1.00
2019-03-09T18:59:46.887Z,0.90
2019-03-09T19:02:13.101Z,0.90
2019-03-09T19:04:39.191Z,0.90
2019-03-09T19:07:05.875Z,0.80
2019-03-09T19:09:32.348Z,1.07
2019-03-09T19:11:58.455Z,0.90
2019-03-09T19:14:24.965Z,0.90
2019-03-09T19:16:51.207Z,1.10
2019-03-09T19:19:17.888Z,0.87
2019-03-09T19:21:44.063Z,0.90
2019-03-09T19:24:10.167Z,0.90
2019-03-09T19:26:37.303Z,0.80
2019-03-09T19:29:03.482Z,0.97
2019-03-09T19:31:29.570Z,0.93
2019-03-09T19:33:55.812Z,0.90
2019-03-09T19:36:22.067Z,1.07
2019-03-09T19:38:48.172Z,1.00
2019-03-09T19:41:14.281Z,1.10
2019-03-09T19:43:40.415Z,1.63
2019-03-09T19:46:06.590Z,2.03
2019-03-09T19:48:32.761Z,1.27
2019-03-09T19:50:58.893Z,1.67
2019-03-09T19:53:25.009Z,1.83
2019-03-09T19:55:51.177Z,0.77
2019-03-09T19:58:17.342Z,1.20
2019-03-09T20:00:43.412Z,1.30
2019-03-09T20:03:10.337Z,1.00
2019-03-09T20:05:36.469Z,0.90
2019-03-09T20:08:02.663Z,0.80
2019-03-09T20:10:28.974Z,0.90
2019-03-09T20:12:55.138Z,1.00
2019-03-09T20:15:21.374Z,0.70
2019-03-09T20:17:47.551Z,1.00
2019-03-09T20:20:14.664Z,1.10
2019-03-09T20:22:40.882Z,0.97
2019-03-09T20:25:07.969Z,1.23
2019-03-09T20:27:34.114Z,1.00
2019-03-09T20:30:00.323Z,1.13
2019-03-09T20:32:27.285Z,1.10
2019-03-09T20:34:53.396Z,1.33
2019-03-09T20:37:19.513Z,1.20
2019-03-09T20:39:45.728Z,1.20
2019-03-09T20:42:11.840Z,1.73
2019-03-09T20:44:37.944Z,1.20
2019-03-09T20:47:04.067Z,1.17
2019-03-09T20:49:30.183Z,1.33
2019-03-09T20:51:56.295Z,1.83
2019-03-09T20:54:22.382Z,1.63
2019-03-09T20:56:48.505Z,2.50
2019-03-09T20:59:14.576Z,1.60
2019-03-09T21:01:40.705Z,1.53
2019-03-09T21:04:06.819Z,1.33
2019-03-09T21:06:32.916Z,1.20
2019-03-09T21:08:59.028Z,3.20
2019-03-09T21:11:25.220Z,1.37
2019-03-09T21:13:51.323Z,1.97
2019-03-09T21:16:17.396Z,1.30
2019-03-09T21:18:43.473Z,1.53
2019-03-09T21:21:09.588Z,1.80
2019-03-09T21:23:35.702Z,2.13
2019-03-09T21:26:01.965Z,2.33
2019-03-09T21:28:28.126Z,2.30
2019-03-09T21:30:54.239Z,2.20
2019-03-09T21:33:20.324Z,2.50
2019-03-09T21:35:46.543Z,2.50
2019-03-09T21:38:12.688Z,2.40
2019-03-09T21:40:38.880Z,2.33
2019-03-09T21:43:04.971Z,2.60
2019-03-09T21:45:31.080Z,2.13
2019-03-09T21:47:57.229Z,2.93
2019-03-09T21:50:23.424Z,2.17
2019-03-09T21:52:49.499Z,2.90
2019-03-09T21:55:15.976Z,2.50
2019-03-09T21:57:42.116Z,2.17
2019-03-09T22:00:11.222Z,2.80
2019-03-09T22:02:37.316Z,2.70
2019-03-09T22:05:07.224Z,2.80
2019-03-09T22:07:33.352Z,2.90
2019-03-09T22:09:59.552Z,2.50
2019-03-09T22:12:25.668Z,2.50
2019-03-09T22:14:53.102Z,3.00
2019-03-09T22:17:19.441Z,3.65
2019-03-09T22:19:45.550Z,3.17
2019-03-09T22:22:11.756Z,2.80
2019-03-09T22:24:37.959Z,3.40
2019-03-09T22:27:04.125Z,3.13
2019-03-09T22:29:30.196Z,3.50
2019-03-09T22:31:56.298Z,4.50
2019-03-09T22:34:22.420Z,3.00
2019-03-09T22:36:48.530Z,3.33
2019-03-09T22:39:14.612Z,2.90
2019-03-09T22:41:40.775Z,2.93
2019-03-09T22:44:06.865Z,2.90
2019-03-09T22:46:33.005Z,3.00
2019-03-09T22:48:59.071Z,2.80
2019-03-09T22:51:25.169Z,2.77
2019-03-09T22:53:51.256Z,2.73
2019-03-09T22:56:17.351Z,3.10
2019-03-09T22:58:43.422Z,2.70
2019-03-09T23:01:09.734Z,2.97
2019-03-09T23:03:35.927Z,2.43
2019-03-09T23:06:02.164Z,2.90
2019-03-09T23:08:28.303Z,2.80
2019-03-09T23:10:54.389Z,2.70
2019-03-09T23:13:20.502Z,2.37
2019-03-09T23:15:46.684Z,2.47
2019-03-09T23:18:12.882Z,2.40
2019-03-09T23:20:39.085Z,1.98
2019-03-09T23:23:05.285Z,2.08
2019-03-09T23:25:31.396Z,2.20
2019-03-09T23:27:57.545Z,2.10
2019-03-09T23:30:23.754Z,2.27
2019-03-09T23:32:49.913Z,2.23
2019-03-09T23:35:16.157Z,2.25
2019-03-09T23:37:44.799Z,2.20
2019-03-09T23:40:16.057Z,1.82
2019-03-09T23:42:42.277Z,1.70
2019-03-09T23:45:12.284Z,2.10
2019-03-09T23:47:38.591Z,1.70
2019-03-09T23:50:10.850Z,1.47
2019-03-09T23:52:36.932Z,2.08
2019-03-09T23:55:04.576Z,1.90
2019-03-09T23:57:30.777Z,1.65
2019-03-09T23:59:56.958Z,1.97
